Friday, October 20, 2017, 9:16 PM EDT
Back to Local

KEKN, Jennings Randolph Field

Location: Elkins, WV, United States Lat: 38.883
Local Time: 9:16 PM EDT ( 1:16 GMT) Lon: -79.85
Time Zone: US/Eastern Elev: 1988 ft

Show me the last for .
Show Decoded

2017-10-20 20:51 METAR KEKN 210051Z AUTO 00000KT 10SM CLR 08/05 A3028 RMK AO2 SLP268 T00780050
                 TSNO =
2017-10-20 19:51 METAR KEKN 202351Z AUTO 00000KT 10SM CLR 11/06 A3028 RMK AO2 SLP266 T01060056
                 10222 20100 53004 TSNO =
2017-10-20 18:51 METAR KEKN 202251Z AUTO 00000KT 10SM CLR 13/06 A3027 RMK AO2 SLP261 T01330061
                 TSNO =
2017-10-20 17:51 METAR KEKN 202151Z AUTO 35004KT 10SM CLR 20/04 A3026 RMK AO2 SLP255 T02000044
                 TSNO =
2017-10-20 16:51 METAR KEKN 202051Z AUTO 33004KT 10SM CLR 21/04 A3026 RMK AO2 SLP254 T02110044
                 56008 TSNO =
2017-10-20 15:51 METAR KEKN 201951Z AUTO 30006KT 10SM CLR 22/04 A3027 RMK AO2 SLP253 T02220044
                 TSNO =
2017-10-20 14:51 METAR KEKN 201851Z AUTO 29006KT 10SM CLR 21/06 A3027 RMK AO2 SLP256 T02110056
                 TSNO =
2017-10-20 13:51 METAR KEKN 201751Z AUTO 32006KT 10SM CLR 21/07 A3029 RMK AO2 SLP261 T02110072
                 10211 20028 58016 TSNO =
2017-10-20 12:51 METAR KEKN 201651Z AUTO 35005KT 10SM CLR 20/09 A3032 RMK AO2 SLP271 T02000089
                 TSNO =
2017-10-20 11:51 METAR KEKN 201551Z AUTO 00000KT 10SM CLR 18/09 A3033 RMK AO2 SLP278 T01830089
                 TSNO =
2017-10-20 10:51 METAR KEKN 201451Z AUTO 00000KT 10SM CLR 14/08 A3034 RMK AO2 SLP281 T01440083
                 50005 TSNO =
2017-10-20 09:51 METAR KEKN 201351Z AUTO 00000KT 10SM CLR 10/07 A3035 RMK AO2 SLP289 T01000067
                 TSNO =
2017-10-20 08:51 METAR KEKN 201251Z AUTO 00000KT 10SM CLR 07/04 A3034 RMK AO2 SLP287 T00670044
                 TSNO =
2017-10-20 07:51 METAR KEKN 201151Z AUTO 00000KT 8SM CLR 03/02 A3032 RMK AO2 SLP282 T00330017
                 10044 20028 51013 TSNO =
2017-10-20 06:51 METAR KEKN 201051Z AUTO 00000KT 8SM CLR 03/02 A3031 RMK AO2 SLP276 T00280017
                 TSNO $ =
2017-10-20 05:51 METAR KEKN 200951Z AUTO 00000KT 9SM CLR 03/02 A3030 RMK AO2 SLP266 T00280017
                 TSNO $ =
2017-10-20 04:51 METAR KEKN 200851Z AUTO 00000KT 10SM CLR 03/02 A3028 RMK AO2 SLP260 T00330022
                 50002 TSNO $ =
2017-10-20 03:51 METAR KEKN 200751Z AUTO 00000KT 10SM CLR 03/02 A3028 RMK AO2 SLP260 T00330022
                 TSNO $ =
2017-10-20 02:51 METAR KEKN 200651Z AUTO 00000KT 10SM CLR 04/02 A3028 RMK AO2 SLP258 T00390022
                 TSNO $ =
2017-10-20 01:51 METAR KEKN 200551Z AUTO 00000KT 10SM CLR 04/03 A3028 RMK AO2 SLP258 T00440028
                 10094 20039 55001 TSNO $ =
2017-10-20 00:51 METAR KEKN 200451Z AUTO 00000KT 10SM CLR 04/03 A3027 RMK AO2 SLP257 T00440028
                 402171006 TSNO $ =
2017-10-19 23:51 METAR KEKN 200351Z AUTO 00000KT 10SM CLR 05/03 A3028 RMK AO2 SLP260 T00500033
                 TSNO $ =
2017-10-19 22:51 METAR KEKN 200251Z AUTO 00000KT 10SM CLR 06/03 A3028 RMK AO2 SLP262 T00610033
                 53010 TSNO $ =
2017-10-19 21:51 METAR KEKN 200151Z AUTO 00000KT 10SM CLR 07/03 A3027 RMK AO2 SLP262 T00670033
                 TSNO $ =

Support USWX by starting your Amazon purchase here.